createdAt,value
2017-02-14T00:00:01.353Z,9.27
2017-02-14T00:01:01.289Z,9.27
2017-02-14T00:02:01.240Z,9.27
2017-02-14T00:03:01.550Z,9.27
2017-02-14T00:04:01.483Z,9.36
2017-02-14T00:05:08.868Z,9.27
2017-02-14T00:06:00.966Z,9.36
2017-02-14T00:07:01.291Z,9.27
2017-02-14T00:08:01.218Z,9.27
2017-02-14T00:09:01.159Z,9.27
2017-02-14T00:10:00.712Z,9.27
2017-02-14T00:11:01.034Z,8.97
2017-02-14T00:12:00.585Z,9.36
2017-02-14T00:13:00.532Z,9.36
2017-02-14T00:14:00.842Z,9.36
2017-02-14T00:15:00.779Z,9.27
2017-02-14T00:16:00.719Z,9.17
2017-02-14T00:17:00.666Z,9.36
2017-02-14T00:18:00.580Z,9.27
2017-02-14T00:19:00.526Z,9.27
2017-02-14T00:20:00.457Z,9.27
2017-02-14T00:21:00.395Z,9.36
2017-02-14T00:22:00.325Z,9.27
2017-02-14T00:23:00.292Z,8.59
2017-02-14T00:24:00.222Z,9.45
2017-02-14T00:25:00.138Z,9.45
2017-02-14T00:26:00.070Z,9.17
2017-02-14T00:26:59.625Z,9.36
2017-02-14T00:27:59.563Z,8.97
2017-02-14T00:28:59.519Z,8.59
2017-02-14T00:29:59.438Z,9.17
2017-02-14T00:30:59.757Z,9.36
2017-02-14T00:31:59.309Z,9.45
2017-02-14T00:32:59.630Z,9.36
2017-02-14T00:33:59.565Z,9.17
2017-02-14T00:34:59.129Z,9.17
2017-02-14T00:35:59.443Z,9.45
2017-02-14T00:36:59.382Z,9.36
2017-02-14T00:37:59.363Z,9.45
2017-02-14T00:38:59.260Z,9.17
2017-02-14T00:39:58.808Z,8.69
2017-02-14T00:40:59.133Z,9.36
2017-02-14T00:41:59.065Z,9.27
2017-02-14T00:42:58.618Z,9.17
2017-02-14T00:43:58.930Z,9.45
2017-02-14T00:44:58.483Z,9.27
2017-02-14T00:45:58.805Z,9.45
2017-02-14T00:46:58.735Z,9.17
2017-02-14T00:47:58.670Z,9.27
2017-02-14T00:48:58.628Z,9.27
2017-02-14T00:49:58.539Z,9.17
2017-02-14T00:50:58.484Z,9.45
2017-02-14T00:51:58.043Z,9.17
2017-02-14T00:52:57.983Z,9.27
2017-02-14T00:53:58.295Z,9.17
2017-02-14T00:54:58.221Z,9.27
2017-02-14T00:55:58.159Z,9.27
2017-02-14T00:56:57.711Z,9.27
2017-02-14T00:57:58.038Z,9.27
2017-02-14T00:58:57.973Z,9.17
2017-02-14T00:59:57.520Z,9.27
2017-02-14T01:01:13.636Z,9.27
2017-02-14T01:02:12.835Z,9.36
2017-02-14T01:03:12.785Z,9.45
2017-02-14T01:04:12.328Z,9.27
2017-02-14T01:05:12.261Z,9.27
2017-02-14T01:06:12.198Z,9.27
2017-02-14T01:07:12.151Z,9.07
2017-02-14T01:08:12.452Z,9.27
2017-02-14T01:09:12.390Z,9.36
2017-02-14T01:10:12.328Z,9.27
2017-02-14T01:11:12.263Z,9.36
2017-02-14T01:12:12.203Z,9.36
2017-02-14T01:13:12.141Z,8.97
2017-02-14T01:14:12.079Z,9.36
2017-02-14T01:15:12.012Z,9.36
2017-02-14T01:16:11.945Z,9.27
2017-02-14T01:17:11.921Z,9.17
2017-02-14T01:18:11.816Z,9.07
2017-02-14T01:19:11.750Z,9.07
2017-02-14T01:20:11.697Z,9.07
2017-02-14T01:21:11.632Z,9.07
2017-02-14T01:22:11.559Z,9.17
2017-02-14T01:23:11.499Z,9.45
2017-02-14T01:24:11.433Z,9.27
2017-02-14T01:25:11.374Z,9.27
2017-02-14T01:26:11.306Z,9.17
2017-02-14T01:27:11.243Z,9.27
2017-02-14T01:28:11.178Z,9.07
2017-02-14T01:29:11.118Z,9.27
2017-02-14T01:30:11.050Z,9.07
2017-02-14T01:31:10.986Z,9.27
2017-02-14T01:32:10.941Z,9.27
2017-02-14T01:33:10.857Z,9.17
2017-02-14T01:34:10.797Z,9.27
2017-02-14T01:35:10.731Z,9.27
2017-02-14T01:36:10.666Z,9.36
2017-02-14T01:37:10.610Z,9.36
2017-02-14T01:38:10.154Z,9.27
2017-02-14T01:39:10.475Z,9.27
2017-02-14T01:40:10.410Z,9.07
2017-02-14T01:41:10.357Z,9.27
2017-02-14T01:42:10.632Z,9.27
2017-02-14T01:43:09.845Z,9.27
2017-02-14T01:44:10.157Z,9.17
2017-02-14T01:45:10.091Z,9.17
2017-02-14T01:46:09.677Z,9.27
2017-02-14T01:47:09.980Z,9.27
2017-02-14T01:48:09.911Z,9.17
2017-02-14T01:49:09.835Z,9.36
2017-02-14T01:50:09.771Z,9.17
2017-02-14T01:51:09.732Z,9.17
2017-02-14T01:52:09.276Z,9.36
2017-02-14T01:53:09.593Z,9.07
2017-02-14T01:54:09.531Z,9.07
2017-02-14T01:55:09.455Z,8.97
2017-02-14T01:56:09.408Z,8.87
2017-02-14T01:57:08.952Z,9.17
2017-02-14T01:58:09.273Z,8.87
2017-02-14T01:59:09.206Z,9.07
2017-02-14T02:00:09.134Z,9.07
2017-02-14T02:01:09.070Z,9.45
2017-02-14T02:02:09.015Z,9.17
2017-02-14T02:03:08.959Z,9.17
2017-02-14T02:04:08.880Z,9.07
2017-02-14T02:05:08.815Z,8.97
2017-02-14T02:06:08.753Z,9.07
2017-02-14T02:07:08.693Z,9.07
2017-02-14T02:08:08.630Z,9.17
2017-02-14T02:09:08.564Z,8.69
2017-02-14T02:10:08.497Z,9.07
2017-02-14T02:11:08.434Z,8.78
2017-02-14T02:12:08.368Z,8.97
2017-02-14T02:13:08.311Z,9.07
2017-02-14T02:14:08.241Z,9.17
2017-02-14T02:15:08.190Z,8.78
2017-02-14T02:16:08.126Z,9.45
2017-02-14T02:17:08.057Z,9.07
2017-02-14T02:18:07.983Z,9.45
2017-02-14T02:19:07.924Z,9.36
2017-02-14T02:20:07.859Z,9.07
2017-02-14T02:21:07.804Z,9.17
2017-02-14T02:22:07.742Z,9.55
2017-02-14T02:23:07.917Z,9.36
2017-02-14T02:24:07.618Z,9.36
2017-02-14T02:25:07.541Z,9.45
2017-02-14T02:26:07.476Z,9.27
2017-02-14T02:27:07.420Z,8.87
2017-02-14T02:28:07.361Z,9.27
2017-02-14T02:29:07.283Z,9.27
2017-02-14T02:30:06.837Z,9.55
2017-02-14T02:31:07.158Z,8.87
2017-02-14T02:32:06.708Z,9.45
2017-02-14T02:33:07.049Z,8.87
2017-02-14T02:34:06.968Z,9.36
2017-02-14T02:35:06.933Z,8.78
2017-02-14T02:36:06.836Z,9.45
2017-02-14T02:37:06.786Z,9.36
2017-02-14T02:38:06.717Z,9.07
2017-02-14T02:39:06.648Z,8.87
2017-02-14T02:40:06.597Z,9.45
2017-02-14T02:41:06.518Z,8.87
2017-02-14T02:42:06.464Z,9.27
2017-02-14T02:43:06.396Z,8.87
2017-02-14T02:44:05.956Z,8.78
2017-02-14T02:45:06.288Z,9.45
2017-02-14T02:46:06.198Z,9.45
2017-02-14T02:47:06.139Z,9.17
2017-02-14T02:48:06.076Z,9.36
2017-02-14T02:49:06.013Z,8.97
2017-02-14T02:50:05.571Z,9.27
2017-02-14T02:51:05.883Z,9.36
2017-02-14T02:52:05.818Z,9.27
2017-02-14T02:53:05.764Z,8.87
2017-02-14T02:54:05.687Z,8.69
2017-02-14T02:55:05.628Z,9.36
2017-02-14T02:56:05.571Z,9.36
2017-02-14T02:57:05.112Z,9.27
2017-02-14T02:58:05.440Z,9.36
2017-02-14T02:59:05.377Z,9.27
2017-02-14T03:00:05.314Z,9.27
2017-02-14T03:01:05.248Z,9.27
2017-02-14T03:02:05.188Z,8.78
2017-02-14T03:03:05.115Z,9.36
2017-02-14T03:04:05.059Z,8.78
2017-02-14T03:05:04.988Z,9.45
2017-02-14T03:06:04.921Z,9.36
2017-02-14T03:07:04.476Z,8.69
2017-02-14T03:08:04.800Z,9.36
2017-02-14T03:09:04.737Z,9.36
2017-02-14T03:10:04.669Z,9.45
2017-02-14T03:11:04.607Z,8.59
2017-02-14T03:12:04.538Z,8.87
2017-02-14T03:13:04.485Z,9.45
2017-02-14T03:14:04.411Z,9.45
2017-02-14T03:15:04.357Z,9.45
2017-02-14T03:16:04.324Z,9.07
2017-02-14T03:17:03.837Z,8.87
2017-02-14T03:18:04.157Z,8.97
2017-02-14T03:19:04.091Z,9.45
2017-02-14T03:20:04.032Z,8.59
2017-02-14T03:21:03.965Z,9.36
2017-02-14T03:22:03.904Z,9.17
2017-02-14T03:23:03.836Z,9.07
2017-02-14T03:24:03.772Z,9.45
2017-02-14T03:25:03.723Z,8.97
2017-02-14T03:26:03.647Z,9.45
2017-02-14T03:27:03.578Z,9.27
2017-02-14T03:28:03.519Z,9.45
2017-02-14T03:29:03.485Z,8.59
2017-02-14T03:30:03.396Z,9.17
2017-02-14T03:31:03.326Z,9.45
2017-02-14T03:32:03.266Z,9.17
2017-02-14T03:33:03.198Z,8.78
2017-02-14T03:34:03.140Z,9.55
2017-02-14T03:35:03.075Z,9.17
2017-02-14T03:36:03.011Z,9.17
2017-02-14T03:37:02.942Z,9.27
2017-02-14T03:38:02.879Z,9.27
2017-02-14T03:39:02.814Z,9.17
2017-02-14T03:40:02.761Z,9.17
2017-02-14T03:41:02.687Z,9.27
2017-02-14T03:42:02.622Z,9.17
2017-02-14T03:43:02.559Z,9.17
2017-02-14T03:44:02.116Z,9.17
2017-02-14T03:45:02.441Z,9.17
2017-02-14T03:46:02.372Z,9.07
2017-02-14T03:47:02.315Z,9.07
2017-02-14T03:48:02.244Z,9.27
2017-02-14T03:49:02.183Z,9.17
2017-02-14T03:50:02.117Z,9.36
2017-02-14T03:51:02.050Z,9.36
2017-02-14T03:52:01.986Z,9.17
2017-02-14T03:53:01.932Z,9.27
2017-02-14T03:54:01.474Z,9.45
2017-02-14T03:55:01.794Z,9.27
2017-02-14T03:56:01.728Z,9.36
2017-02-14T03:57:01.665Z,9.36
2017-02-14T03:58:01.601Z,9.27
2017-02-14T03:59:01.546Z,9.27
2017-02-14T04:00:01.481Z,9.36
2017-02-14T04:01:01.411Z,9.36
2017-02-14T04:02:01.348Z,9.36
2017-02-14T04:03:01.278Z,9.27
2017-02-14T04:04:01.229Z,9.36
2017-02-14T04:05:01.154Z,9.36
2017-02-14T04:06:01.106Z,9.36
2017-02-14T04:07:01.028Z,9.45
2017-02-14T04:08:00.972Z,9.36
2017-02-14T04:09:00.898Z,9.36
2017-02-14T04:10:00.835Z,9.45
2017-02-14T04:11:00.774Z,9.36
2017-02-14T04:12:00.707Z,9.55
2017-02-14T04:13:00.652Z,9.45
2017-02-14T04:14:00.580Z,9.36
2017-02-14T04:15:00.523Z,9.36
2017-02-14T04:16:00.459Z,9.55
2017-02-14T04:17:00.389Z,9.45
2017-02-14T04:18:00.357Z,9.45
2017-02-14T04:19:00.264Z,9.65
2017-02-14T04:20:00.198Z,9.36
2017-02-14T04:21:00.141Z,9.36
2017-02-14T04:22:00.072Z,9.65
2017-02-14T04:23:00.006Z,9.45
2017-02-14T04:23:59.941Z,9.36
2017-02-14T04:24:59.881Z,9.27
2017-02-14T04:25:59.815Z,9.55
2017-02-14T04:26:59.750Z,9.55
2017-02-14T04:27:59.688Z,9.36
2017-02-14T04:28:59.653Z,9.27
2017-02-14T04:29:59.565Z,9.55
2017-02-14T04:30:59.507Z,9.55
2017-02-14T04:31:59.430Z,9.65
2017-02-14T04:32:59.371Z,9.36
2017-02-14T04:33:59.301Z,9.65
2017-02-14T04:34:59.240Z,9.45
2017-02-14T04:35:59.172Z,9.36
2017-02-14T04:36:59.109Z,9.36
2017-02-14T04:37:59.051Z,9.27
2017-02-14T04:38:58.993Z,9.27
2017-02-14T04:39:58.920Z,9.65
2017-02-14T04:40:58.865Z,9.36
2017-02-14T04:41:58.798Z,9.45
2017-02-14T04:42:58.726Z,9.27
2017-02-14T04:43:58.669Z,9.17
2017-02-14T04:44:58.600Z,9.27
2017-02-14T04:45:58.537Z,9.45
2017-02-14T04:46:58.478Z,9.36
2017-02-14T04:47:58.411Z,9.27
2017-02-14T04:48:58.357Z,9.27
2017-02-14T04:49:58.293Z,9.36
2017-02-14T04:50:58.217Z,9.55
2017-02-14T04:51:58.155Z,9.27
2017-02-14T04:52:58.090Z,9.45
2017-02-14T04:53:58.026Z,9.45
2017-02-14T04:54:57.961Z,9.27
2017-02-14T04:55:57.911Z,9.36
2017-02-14T04:56:57.835Z,9.36
2017-02-14T04:57:57.768Z,9.36
2017-02-14T04:58:57.736Z,9.45
2017-02-14T04:59:57.648Z,9.55
2017-02-14T05:00:57.578Z,9.27
2017-02-14T05:01:57.517Z,9.27
2017-02-14T05:02:57.450Z,9.45
2017-02-14T05:03:57.404Z,9.27
2017-02-14T05:04:57.329Z,9.55
2017-02-14T05:05:57.260Z,9.45
2017-02-14T05:06:57.200Z,9.55
2017-02-14T05:07:57.142Z,9.36
2017-02-14T05:08:57.067Z,9.17
2017-02-14T05:09:57.004Z,9.27
2017-02-14T05:10:56.949Z,8.97
2017-02-14T05:11:56.876Z,8.87
2017-02-14T05:12:56.823Z,8.78
2017-02-14T05:13:56.753Z,8.69
2017-02-14T05:14:56.691Z,8.39
2017-02-14T05:15:56.618Z,8.59
2017-02-14T05:16:56.567Z,8.59
2017-02-14T05:17:56.495Z,8.49
2017-02-14T05:18:56.436Z,8.59
2017-02-14T05:19:56.366Z,8.69
2017-02-14T05:20:56.313Z,8.59
2017-02-14T05:21:56.249Z,8.59
2017-02-14T05:22:56.178Z,8.69
2017-02-14T05:23:56.108Z,8.59
2017-02-14T05:24:56.046Z,8.69
2017-02-14T05:25:55.981Z,8.49
2017-02-14T05:26:55.913Z,8.2
2017-02-14T05:27:55.857Z,8.39
2017-02-14T05:28:55.826Z,8.49
2017-02-14T05:29:55.723Z,8.29
2017-02-14T05:30:55.658Z,8.29
2017-02-14T05:31:55.602Z,8.29
2017-02-14T05:32:55.531Z,8.39
2017-02-14T05:33:55.467Z,8.59
2017-02-14T05:34:55.412Z,8.49
2017-02-14T05:35:54.956Z,8.59
2017-02-14T05:36:55.279Z,8.59
2017-02-14T05:37:55.213Z,8.39
2017-02-14T05:38:55.149Z,8.29
2017-02-14T05:39:55.085Z,8.01
2017-02-14T05:40:55.019Z,8.39
2017-02-14T05:41:54.973Z,8.1
2017-02-14T05:42:54.894Z,8.01
2017-02-14T05:43:54.827Z,8.29
2017-02-14T05:44:54.766Z,8.2
2017-02-14T05:45:54.699Z,8.11
2017-02-14T05:46:54.647Z,8.29
2017-02-14T05:47:54.594Z,8.11
2017-02-14T05:48:54.509Z,8.29
2017-02-14T05:49:54.457Z,8.39
2017-02-14T05:50:54.380Z,8.49
2017-02-14T05:51:54.342Z,8.48
2017-02-14T05:52:54.250Z,8.48
2017-02-14T05:53:54.187Z,8.49
2017-02-14T05:54:54.124Z,8.58
2017-02-14T05:55:54.324Z,8.49
2017-02-14T05:56:54.002Z,8.39
2017-02-14T05:57:53.930Z,8.39
2017-02-14T05:58:53.866Z,8.49
2017-02-14T05:59:53.803Z,8.01
2017-02-14T06:00:53.737Z,8.11
2017-02-14T06:01:53.686Z,8.11
2017-02-14T06:02:53.231Z,8.29
2017-02-14T06:03:53.550Z,8.01
2017-02-14T06:04:53.494Z,8.29
2017-02-14T06:05:53.418Z,8.2
2017-02-14T06:06:53.360Z,8.29
2017-02-14T06:07:53.293Z,8.2
2017-02-14T06:08:53.236Z,8.2
2017-02-14T06:09:53.176Z,8.2
2017-02-14T06:10:53.103Z,8.29
2017-02-14T06:11:53.034Z,8.2
2017-02-14T06:12:52.991Z,8
2017-02-14T06:13:52.919Z,8.01
2017-02-14T06:14:52.841Z,7.72
2017-02-14T06:15:52.784Z,7.52
2017-02-14T06:16:52.734Z,8.01
2017-02-14T06:17:52.654Z,7.71
2017-02-14T06:18:52.585Z,7.9
2017-02-14T06:19:52.520Z,7.91
2017-02-14T06:20:52.457Z,7.72
2017-02-14T06:21:52.394Z,7.81
2017-02-14T06:22:52.330Z,7.33
2017-02-14T06:23:52.276Z,7.23
2017-02-14T06:24:52.208Z,7.53
2017-02-14T06:25:52.145Z,7.62
2017-02-14T06:26:52.079Z,7.53
2017-02-14T06:27:52.021Z,7.62
2017-02-14T06:28:51.945Z,7.81
2017-02-14T06:29:51.880Z,7.62
2017-02-14T06:30:52.074Z,7.33
2017-02-14T06:31:51.371Z,7.33
2017-02-14T06:32:51.690Z,7.33
2017-02-14T06:33:51.636Z,7.23
2017-02-14T06:34:51.180Z,7.53
2017-02-14T06:35:51.498Z,7.62
2017-02-14T06:36:51.435Z,7.62
2017-02-14T06:37:51.381Z,7.72
2017-02-14T06:38:51.309Z,7.62
2017-02-14T06:39:51.240Z,7.62
2017-02-14T06:40:51.177Z,7.62
2017-02-14T06:41:51.116Z,7.62
2017-02-14T06:42:51.060Z,7.53
2017-02-14T06:43:50.994Z,7.43
2017-02-14T06:44:50.923Z,7.43
2017-02-14T06:45:50.858Z,7.43
2017-02-14T06:46:50.794Z,7.33
2017-02-14T06:47:50.731Z,7.62
2017-02-14T06:48:50.667Z,7.33
2017-02-14T06:49:50.605Z,7.43
2017-02-14T06:50:50.535Z,7.33
2017-02-14T06:51:50.472Z,7.14
2017-02-14T06:52:50.408Z,7.33
2017-02-14T06:53:50.374Z,6.85
2017-02-14T06:54:50.279Z,6.95
2017-02-14T06:55:50.216Z,6.95
2017-02-14T06:56:50.151Z,6.85
2017-02-14T06:57:50.091Z,7.14
2017-02-14T06:58:50.024Z,7.14
2017-02-14T06:59:49.975Z,7.14
2017-02-14T07:00:50.197Z,7.04
2017-02-14T07:01:49.830Z,7.23
2017-02-14T07:02:49.771Z,7.14
2017-02-14T07:03:49.704Z,7.33
2017-02-14T07:04:49.646Z,6.85
2017-02-14T07:05:49.834Z,7.04
2017-02-14T07:06:49.523Z,6.85
2017-02-14T07:07:49.449Z,7.14
2017-02-14T07:08:49.384Z,7.23
2017-02-14T07:09:49.317Z,7.04
2017-02-14T07:10:49.256Z,7.14
2017-02-14T07:11:49.189Z,7.43
2017-02-14T07:12:49.130Z,7.14
2017-02-14T07:13:49.064Z,6.95
2017-02-14T07:14:49.000Z,7.43
2017-02-14T07:15:48.937Z,7.14
2017-02-14T07:16:48.877Z,7.04
2017-02-14T07:17:48.809Z,7.14
2017-02-14T07:18:48.763Z,7.04
2017-02-14T07:19:48.678Z,7.23
2017-02-14T07:20:48.613Z,7.23
2017-02-14T07:21:48.551Z,7.04
2017-02-14T07:22:48.501Z,7.23
2017-02-14T07:23:48.430Z,7.04
2017-02-14T07:24:48.357Z,7.14
2017-02-14T07:25:48.294Z,6.85
2017-02-14T07:26:48.234Z,6.85
2017-02-14T07:27:48.166Z,6.85
2017-02-14T07:28:48.113Z,6.85
2017-02-14T07:29:48.042Z,6.95
2017-02-14T07:30:47.978Z,6.56
2017-02-14T07:31:47.917Z,6.95
2017-02-14T07:32:47.875Z,6.85
2017-02-14T07:33:47.781Z,6.85
2017-02-14T07:34:47.718Z,7.04
2017-02-14T07:35:47.653Z,6.85
2017-02-14T07:36:47.591Z,6.95
2017-02-14T07:37:47.531Z,6.56
2017-02-14T07:38:47.467Z,6.46
2017-02-14T07:39:47.398Z,6.56
2017-02-14T07:40:47.334Z,6.46
2017-02-14T07:41:47.282Z,6.56
2017-02-14T07:42:47.206Z,6.66
2017-02-14T07:43:47.148Z,6.46
2017-02-14T07:44:47.081Z,6.66
2017-02-14T07:45:47.024Z,6.56
2017-02-14T07:46:46.950Z,6.56
2017-02-14T07:47:46.904Z,6.37
2017-02-14T07:48:46.824Z,6.46
2017-02-14T07:49:46.769Z,6.46
2017-02-14T07:50:46.697Z,6.85
2017-02-14T07:51:46.633Z,6.46
2017-02-14T07:52:46.571Z,6.56
2017-02-14T07:53:46.501Z,6.46
2017-02-14T07:54:46.440Z,6.85
2017-02-14T07:55:46.375Z,7.04
2017-02-14T07:56:46.315Z,6.95
2017-02-14T07:57:46.257Z,6.85
2017-02-14T07:58:46.185Z,6.56
2017-02-14T07:59:46.124Z,6.85
2017-02-14T08:00:46.055Z,6.46
2017-02-14T08:01:45.993Z,6.56
2017-02-14T08:02:45.924Z,6.46
2017-02-14T08:03:45.868Z,6.66
2017-02-14T08:04:45.800Z,6.46
2017-02-14T08:05:45.735Z,6.56
2017-02-14T08:06:45.673Z,6.46
2017-02-14T08:07:45.613Z,6.56
2017-02-14T08:08:45.542Z,6.46
2017-02-14T08:09:45.476Z,6.27
2017-02-14T08:10:45.416Z,6.46
2017-02-14T08:11:45.360Z,6.46
2017-02-14T08:12:45.285Z,6.85
2017-02-14T08:13:45.221Z,6.46
2017-02-14T08:14:45.159Z,6.46
2017-02-14T08:15:45.093Z,6.46
2017-02-14T08:16:45.036Z,6.46
2017-02-14T08:17:44.977Z,6.66
2017-02-14T08:18:44.911Z,6.75
2017-02-14T08:19:44.840Z,6.56
2017-02-14T08:20:44.779Z,6.75
2017-02-14T08:21:44.711Z,6.66
2017-02-14T08:22:44.648Z,6.66
2017-02-14T08:23:44.581Z,6.66
2017-02-14T08:24:44.521Z,6.85
2017-02-14T08:25:44.375Z,6.85
2017-02-14T08:26:44.391Z,6.66
2017-02-14T08:27:44.339Z,6.66
2017-02-14T08:28:44.261Z,6.75
2017-02-14T08:29:44.203Z,6.85
2017-02-14T08:30:44.388Z,6.66
2017-02-14T08:31:44.072Z,6.66
2017-02-14T08:32:44.007Z,6.95
2017-02-14T08:33:43.953Z,6.66
2017-02-14T08:34:43.881Z,6.95
2017-02-14T08:35:44.114Z,6.95
2017-02-14T08:36:43.752Z,6.85
2017-02-14T08:37:43.699Z,6.66
2017-02-14T08:38:43.802Z,6.66
2017-02-14T08:39:43.177Z,6.95
2017-02-14T08:40:43.751Z,6.75
2017-02-14T08:41:43.059Z,6.66
2017-02-14T08:42:43.365Z,6.56
2017-02-14T08:43:43.304Z,6.66
2017-02-14T08:44:43.236Z,6.85
2017-02-14T08:45:43.480Z,6.75
2017-02-14T08:46:43.113Z,6.66
2017-02-14T08:47:43.048Z,6.56
2017-02-14T08:48:42.983Z,6.56
2017-02-14T08:49:42.919Z,6.75
2017-02-14T08:50:43.153Z,6.46
2017-02-14T08:51:42.795Z,6.95
2017-02-14T08:52:42.724Z,6.56
2017-02-14T08:53:42.663Z,7.04
2017-02-14T08:54:42.603Z,6.95
2017-02-14T08:55:42.788Z,6.95
2017-02-14T08:56:42.470Z,7.14
2017-02-14T08:57:42.415Z,7.14
2017-02-14T08:58:42.348Z,6.95
2017-02-14T08:59:42.283Z,6.95
2017-02-14T09:00:42.216Z,7.33
2017-02-14T09:01:41.767Z,7.23
2017-02-14T09:02:42.091Z,7.62
2017-02-14T09:03:42.032Z,7.53
2017-02-14T09:04:41.579Z,7.62
2017-02-14T09:05:43.729Z,7.62
2017-02-14T09:06:41.841Z,7.62
2017-02-14T09:07:42.018Z,7.53
2017-02-14T09:08:41.790Z,7.62
2017-02-14T09:09:41.718Z,7.72
2017-02-14T09:10:41.578Z,7.72
2017-02-14T09:11:41.511Z,8.2
2017-02-14T09:12:41.568Z,8.01
2017-02-14T09:13:41.391Z,7.91
2017-02-14T09:14:41.323Z,8.49
2017-02-14T09:15:41.615Z,8.59
2017-02-14T09:16:41.191Z,8.49
2017-02-14T09:17:41.130Z,9.27
2017-02-14T09:18:41.062Z,9.27
2017-02-14T09:19:41.000Z,9.07
2017-02-14T09:20:40.946Z,9.36
2017-02-14T09:21:40.885Z,9.55
2017-02-14T09:22:40.816Z,9.36
2017-02-14T09:23:40.365Z,9.45
2017-02-14T09:24:40.698Z,9.55
2017-02-14T09:25:40.621Z,9.75
2017-02-14T09:26:40.169Z,9.84
2017-02-14T09:27:40.489Z,10.23
2017-02-14T09:28:40.427Z,10.23
2017-02-14T09:29:39.979Z,10.23
2017-02-14T09:30:40.610Z,10.62
2017-02-14T09:31:39.854Z,10.42
2017-02-14T09:32:40.175Z,10.72
2017-02-14T09:33:40.163Z,10.33
2017-02-14T09:34:40.043Z,11
2017-02-14T09:35:39.946Z,10.91
2017-02-14T09:36:39.926Z,11.1
2017-02-14T09:37:39.854Z,10.81
2017-02-14T09:38:39.786Z,11.39
2017-02-14T09:39:39.730Z,11.1
2017-02-14T09:40:39.669Z,11.29
2017-02-14T09:41:39.857Z,11.2
2017-02-14T09:42:39.537Z,11.1
2017-02-14T09:43:39.796Z,10.81
2017-02-14T09:44:39.031Z,10.91
2017-02-14T09:45:39.343Z,10.81
2017-02-14T09:46:39.528Z,11.1
2017-02-14T09:47:39.216Z,11.1
2017-02-14T09:48:39.171Z,11.1
2017-02-14T09:49:39.085Z,11
2017-02-14T09:50:39.034Z,10.91
2017-02-14T09:51:38.587Z,11.1
2017-02-14T09:52:38.915Z,11
2017-02-14T09:53:38.833Z,11.1
2017-02-14T09:54:38.769Z,10.81
2017-02-14T09:55:39.072Z,11.2
2017-02-14T09:56:38.648Z,10.81
2017-02-14T09:57:38.585Z,10.81
2017-02-14T09:58:38.515Z,10.81
2017-02-14T09:59:38.464Z,11.1
2017-02-14T10:00:38.387Z,11.97
2017-02-14T10:01:38.324Z,11.87
2017-02-14T10:02:38.263Z,12.07
2017-02-14T10:03:38.238Z,11.97
2017-02-14T10:04:38.139Z,11.78
2017-02-14T10:05:38.071Z,11.58
2017-02-14T10:06:38.014Z,11.29
2017-02-14T10:07:37.944Z,11.29
2017-02-14T10:08:37.878Z,11.1
2017-02-14T10:09:37.823Z,11
2017-02-14T10:10:37.752Z,11
2017-02-14T10:11:37.687Z,11.58
2017-02-14T10:12:37.648Z,11.39
2017-02-14T10:13:37.580Z,11.39
2017-02-14T10:14:37.514Z,11.29
2017-02-14T10:15:37.305Z,11.2
2017-02-14T10:16:37.372Z,11.29
2017-02-14T10:17:37.305Z,11.1
2017-02-14T10:18:37.251Z,11
2017-02-14T10:19:37.182Z,11.1
2017-02-14T10:20:37.415Z,11
2017-02-14T10:21:37.063Z,11.29
2017-02-14T10:22:36.990Z,11.1
2017-02-14T10:23:36.923Z,11.1
2017-02-14T10:24:36.860Z,11.1
2017-02-14T10:25:36.802Z,11.1
2017-02-14T10:26:36.739Z,11.39
2017-02-14T10:27:36.710Z,11.2
2017-02-14T10:28:36.616Z,11.39
2017-02-14T10:29:36.543Z,11.39
2017-02-14T10:30:36.482Z,11.29
2017-02-14T10:31:36.417Z,11.1
2017-02-14T10:32:36.356Z,11
2017-02-14T10:33:36.302Z,11.39
2017-02-14T10:34:35.862Z,11.1
2017-02-14T10:35:36.163Z,11.29
2017-02-14T10:36:36.102Z,11.39
2017-02-14T10:37:36.044Z,11.1
2017-02-14T10:38:35.972Z,11.1
2017-02-14T10:39:35.908Z,11
2017-02-14T10:40:35.843Z,11
2017-02-14T10:41:35.796Z,11
2017-02-14T10:42:35.731Z,11.1
2017-02-14T10:43:35.665Z,11.1
2017-02-14T10:44:35.209Z,11.1
2017-02-14T10:45:35.525Z,11
2017-02-14T10:46:35.081Z,11.1
2017-02-14T10:47:35.017Z,11.1
2017-02-14T10:48:34.951Z,11.2
2017-02-14T10:49:35.273Z,11.49
2017-02-14T10:50:35.220Z,11.49
2017-02-14T10:51:35.152Z,11.58
2017-02-14T10:52:35.085Z,11.1
2017-02-14T10:53:35.016Z,11.1
2017-02-14T10:54:34.957Z,10.72
2017-02-14T10:55:34.896Z,11
2017-02-14T10:56:34.834Z,11
2017-02-14T10:57:34.777Z,10.81
2017-02-14T10:58:34.701Z,10.52
2017-02-14T10:59:34.643Z,10.72
2017-02-14T11:00:34.573Z,10.33
2017-02-14T11:01:34.527Z,10.42
2017-02-14T11:02:34.444Z,10.52
2017-02-14T11:03:34.380Z,10.23
2017-02-14T11:04:34.320Z,10.62
2017-02-14T11:05:34.256Z,10.42
2017-02-14T11:06:34.293Z,9.66
2017-02-14T11:07:34.187Z,10.42
2017-02-14T11:08:34.127Z,9.75
2017-02-14T11:09:34.010Z,9.84
2017-02-14T11:10:33.938Z,9.84
2017-02-14T11:11:33.878Z,9.56
2017-02-14T11:12:33.812Z,9.27
2017-02-14T11:13:33.752Z,9.56
2017-02-14T11:14:33.684Z,9.56
2017-02-14T11:15:33.624Z,9.56
2017-02-14T11:16:33.558Z,9.56
2017-02-14T11:17:33.492Z,9.66
2017-02-14T11:18:33.436Z,9.36
2017-02-14T11:19:33.382Z,9.36
2017-02-14T11:20:33.303Z,9.46
2017-02-14T11:21:33.240Z,9.36
2017-02-14T11:22:33.179Z,9.36
2017-02-14T11:23:33.140Z,9.17
2017-02-14T11:24:33.047Z,9.36
2017-02-14T11:25:32.983Z,9.17
2017-02-14T11:26:32.927Z,9.36
2017-02-14T11:27:32.870Z,9.36
2017-02-14T11:28:32.794Z,8.88
2017-02-14T11:29:32.730Z,8.78
2017-02-14T11:30:32.285Z,9.17
2017-02-14T11:31:32.607Z,9.27
2017-02-14T11:32:32.541Z,8.98
2017-02-14T11:33:32.815Z,9.27
2017-02-14T11:34:32.414Z,9.08
2017-02-14T11:35:32.349Z,8.78
2017-02-14T11:36:32.351Z,8.88
2017-02-14T11:37:32.230Z,9.08
2017-02-14T11:38:32.157Z,9.27
2017-02-14T11:39:32.109Z,8.88
2017-02-14T11:40:32.029Z,8.5
2017-02-14T11:41:31.967Z,8.5
2017-02-14T11:42:31.915Z,8.78
2017-02-14T11:43:31.838Z,8.59
2017-02-14T11:44:31.799Z,8.5
2017-02-14T11:45:31.713Z,8.69
2017-02-14T11:46:31.267Z,8.4
2017-02-14T11:47:31.586Z,8.69
2017-02-14T11:48:31.154Z,8.5
2017-02-14T11:49:31.458Z,8.59
2017-02-14T11:50:31.393Z,8.59
2017-02-14T11:51:30.948Z,8.59
2017-02-14T11:52:31.267Z,8.59
2017-02-14T11:53:31.210Z,8.59
2017-02-14T11:54:31.155Z,8.5
2017-02-14T11:55:31.088Z,9.27
2017-02-14T11:56:31.018Z,8.88
2017-02-14T11:57:30.948Z,9.27
2017-02-14T11:58:30.893Z,9.75
2017-02-14T11:59:30.824Z,9.46
2017-02-14T12:00:30.761Z,9.46
2017-02-14T12:01:30.695Z,9.84
2017-02-14T12:02:30.632Z,10.62
2017-02-14T12:03:30.570Z,10.42
2017-02-14T12:04:30.508Z,11.2
2017-02-14T12:05:30.444Z,12.45
2017-02-14T12:06:30.380Z,13.03
2017-02-14T12:07:30.324Z,12.55
2017-02-14T12:08:29.992Z,12.55
2017-02-14T12:09:30.192Z,13.04
2017-02-14T12:10:30.380Z,14.01
2017-02-14T12:11:30.089Z,13.91
2017-02-14T12:12:30.011Z,14.01
2017-02-14T12:13:29.935Z,14.49
2017-02-14T12:14:29.873Z,14.39
2017-02-14T12:15:29.817Z,14.87
2017-02-14T12:16:29.743Z,15.84
2017-02-14T12:17:29.680Z,16.13
2017-02-14T12:18:29.619Z,15.26
2017-02-14T12:19:29.553Z,16.13
2017-02-14T12:20:29.561Z,16.71
2017-02-14T12:21:29.431Z,17.19
2017-02-14T12:22:29.364Z,17.1
2017-02-14T12:23:29.308Z,18.55
2017-02-14T12:24:29.249Z,18.16
2017-02-14T12:25:29.187Z,18.16
2017-02-14T12:26:29.116Z,18.93
2017-02-14T12:27:29.054Z,19.03
2017-02-14T12:28:28.984Z,19.12
2017-02-14T12:29:28.921Z,18.84
2017-02-14T12:30:28.880Z,19.12
2017-02-14T12:31:28.796Z,18.93
2017-02-14T12:32:28.732Z,19.32
2017-02-14T12:33:28.683Z,19.51
2017-02-14T12:34:28.606Z,18.35
2017-02-14T12:35:28.566Z,19.51
2017-02-14T12:36:28.589Z,19.22
2017-02-14T12:37:28.539Z,19.61
2017-02-14T12:38:28.520Z,19.7
2017-02-14T12:39:28.379Z,20
2017-02-14T12:40:28.320Z,20.28
2017-02-14T12:41:28.200Z,20.28
2017-02-14T12:42:28.133Z,20.09
2017-02-14T12:43:28.069Z,20.77
2017-02-14T12:44:28.039Z,20.29
2017-02-14T12:45:28.173Z,20.2
2017-02-14T12:46:27.479Z,20.29
2017-02-14T12:47:27.786Z,20.39
2017-02-14T12:48:27.723Z,20.39
2017-02-14T12:49:27.659Z,21.07
2017-02-14T12:50:27.947Z,20.59
2017-02-14T12:51:27.534Z,20.29
2017-02-14T12:52:27.484Z,20.49
2017-02-14T12:53:27.037Z,21.36
2017-02-14T12:54:27.351Z,21.84
2017-02-14T12:55:27.282Z,21.75
2017-02-14T12:56:27.231Z,21.26
2017-02-14T12:57:27.155Z,21.36
2017-02-14T12:58:27.094Z,21.75
2017-02-14T12:59:27.085Z,21.55
2017-02-14T13:00:27.248Z,21.75
2017-02-14T13:01:27.368Z,22.33
2017-02-14T13:02:26.898Z,21.65
2017-02-14T13:03:27.343Z,21.75
2017-02-14T13:04:27.746Z,21.55
2017-02-14T13:05:26.669Z,22.23
2017-02-14T13:06:26.698Z,22.61
2017-02-14T13:07:26.837Z,22.61
2017-02-14T13:08:26.468Z,22.13
2017-02-14T13:09:26.402Z,22.33
2017-02-14T13:10:26.341Z,21.65
2017-02-14T13:11:25.904Z,21.65
2017-02-14T13:12:26.230Z,22.33
2017-02-14T13:13:26.168Z,22.71
2017-02-14T13:14:26.102Z,22.23
2017-02-14T13:15:26.076Z,22.61